sensor_id;sensor_type;location;lat;lon;timestamp;pressure;altitude;pressure_sealevel;temperature;humidity
19526;BME280;9907;42.676;26.348;2023-06-04T00:00:46;98997.06;;;16.80;100.00
19526;BME280;9907;42.676;26.348;2023-06-04T00:03:12;99003.59;;;16.86;100.00
19526;BME280;9907;42.676;26.348;2023-06-04T00:05:38;98996.63;;;16.69;100.00
19526;BME280;9907;42.676;26.348;2023-06-04T00:08:03;99007.06;;;16.72;100.00
19526;BME280;9907;42.676;26.348;2023-06-04T00:10:29;98998.44;;;16.76;100.00
19526;BME280;9907;42.676;26.348;2023-06-04T00:12:54;99005.81;;;16.82;100.00
19526;BME280;9907;42.676;26.348;2023-06-04T00:15:19;99001.94;;;16.85;100.00
19526;BME280;9907;42.676;26.348;2023-06-04T00:17:45;99002.00;;;16.77;100.00
19526;BME280;9907;42.676;26.348;2023-06-04T00:20:11;99001.75;;;16.86;100.00
19526;BME280;9907;42.676;26.348;2023-06-04T00:22:36;99013.66;;;16.69;100.00
19526;BME280;9907;42.676;26.348;2023-06-04T00:25:02;99013.47;;;16.71;100.00
19526;BME280;9907;42.676;26.348;2023-06-04T00:27:28;99013.69;;;16.61;100.00
19526;BME280;9907;42.676;26.348;2023-06-04T00:29:54;99011.13;;;16.68;100.00
19526;BME280;9907;42.676;26.348;2023-06-04T00:32:20;99012.19;;;16.50;100.00
19526;BME280;9907;42.676;26.348;2023-06-04T00:34:55;99012.81;;;16.69;100.00
19526;BME280;9907;42.676;26.348;2023-06-04T00:37:23;99009.44;;;16.67;100.00
19526;BME280;9907;42.676;26.348;2023-06-04T00:39:49;99015.47;;;16.77;100.00
19526;BME280;9907;42.676;26.348;2023-06-04T00:42:15;99019.53;;;16.73;100.00
19526;BME280;9907;42.676;26.348;2023-06-04T00:44:41;99015.13;;;16.80;100.00
19526;BME280;9907;42.676;26.348;2023-06-04T00:47:16;99014.28;;;16.79;100.00
19526;BME280;9907;42.676;26.348;2023-06-04T00:49:42;99017.19;;;16.70;100.00
19526;BME280;9907;42.676;26.348;2023-06-04T00:52:09;99018.94;;;16.54;100.00
19526;BME280;9907;42.676;26.348;2023-06-04T00:54:36;99030.03;;;16.60;100.00
19526;BME280;9907;42.676;26.348;2023-06-04T00:57:02;99028.03;;;16.62;100.00
19526;BME280;9907;42.676;26.348;2023-06-04T00:59:31;99018.25;;;16.61;100.00
19526;BME280;9907;42.676;26.348;2023-06-04T01:02:03;99032.34;;;16.71;100.00
19526;BME280;9907;42.676;26.348;2023-06-04T01:04:35;99025.91;;;16.80;100.00
19526;BME280;9907;42.676;26.348;2023-06-04T01:07:04;99026.25;;;16.77;100.00
19526;BME280;9907;42.676;26.348;2023-06-04T01:09:30;99032.00;;;16.74;100.00
19526;BME280;9907;42.676;26.348;2023-06-04T01:11:56;99037.47;;;16.58;100.00
19526;BME280;9907;42.676;26.348;2023-06-04T01:14:27;99032.75;;;16.51;100.00
19526;BME280;9907;42.676;26.348;2023-06-04T01:16:56;99039.16;;;16.59;100.00
19526;BME280;9907;42.676;26.348;2023-06-04T01:22:18;99035.59;;;16.66;100.00
19526;BME280;9907;42.676;26.348;2023-06-04T01:24:52;99045.69;;;16.64;100.00
19526;BME280;9907;42.676;26.348;2023-06-04T01:27:22;99051.41;;;16.69;100.00
19526;BME280;9907;42.676;26.348;2023-06-04T01:29:47;99041.97;;;16.73;100.00
19526;BME280;9907;42.676;26.348;2023-06-04T01:32:16;99041.75;;;16.75;100.00
19526;BME280;9907;42.676;26.348;2023-06-04T01:34:45;99044.84;;;16.64;100.00
19526;BME280;9907;42.676;26.348;2023-06-04T01:37:11;99051.22;;;16.71;100.00
19526;BME280;9907;42.676;26.348;2023-06-04T01:39:37;99047.16;;;16.75;100.00
19526;BME280;9907;42.676;26.348;2023-06-04T01:42:03;99054.84;;;16.86;100.00
19526;BME280;9907;42.676;26.348;2023-06-04T01:44:28;99043.81;;;16.73;100.00
19526;BME280;9907;42.676;26.348;2023-06-04T01:46:54;99042.16;;;16.64;100.00
19526;BME280;9907;42.676;26.348;2023-06-04T01:49:20;99043.81;;;16.73;100.00
19526;BME280;9907;42.676;26.348;2023-06-04T01:51:45;99043.50;;;16.68;100.00
19526;BME280;9907;42.676;26.348;2023-06-04T01:54:11;99056.09;;;16.75;100.00
19526;BME280;9907;42.676;26.348;2023-06-04T01:56:36;99051.16;;;16.87;100.00
19526;BME280;9907;42.676;26.348;2023-06-04T01:59:02;99049.09;;;16.89;100.00
19526;BME280;9907;42.676;26.348;2023-06-04T02:01:27;99053.00;;;16.86;100.00
19526;BME280;9907;42.676;26.348;2023-06-04T02:03:52;99051.38;;;16.77;100.00
19526;BME280;9907;42.676;26.348;2023-06-04T02:06:18;99057.94;;;16.75;100.00
19526;BME280;9907;42.676;26.348;2023-06-04T02:08:44;99058.63;;;16.77;100.00
19526;BME280;9907;42.676;26.348;2023-06-04T02:11:10;99053.88;;;16.79;100.00
19526;BME280;9907;42.676;26.348;2023-06-04T02:13:35;99052.03;;;16.79;100.00
19526;BME280;9907;42.676;26.348;2023-06-04T02:16:01;99049.22;;;16.73;100.00
19526;BME280;9907;42.676;26.348;2023-06-04T02:18:27;99060.47;;;16.76;100.00
19526;BME280;9907;42.676;26.348;2023-06-04T02:20:56;99057.25;;;16.81;100.00
19526;BME280;9907;42.676;26.348;2023-06-04T02:23:22;99061.09;;;16.86;100.00
19526;BME280;9907;42.676;26.348;2023-06-04T02:25:47;99055.69;;;16.86;100.00
19526;BME280;9907;42.676;26.348;2023-06-04T02:28:15;99065.28;;;16.89;100.00
19526;BME280;9907;42.676;26.348;2023-06-04T02:30:41;99053.88;;;16.79;100.00
19526;BME280;9907;42.676;26.348;2023-06-04T02:33:06;99068.00;;;16.89;100.00
19526;BME280;9907;42.676;26.348;2023-06-04T02:35:35;99069.47;;;16.99;100.00
19526;BME280;9907;42.676;26.348;2023-06-04T02:38:01;99073.31;;;17.05;100.00
19526;BME280;9907;42.676;26.348;2023-06-04T02:40:27;99074.88;;;16.99;100.00
19526;BME280;9907;42.676;26.348;2023-06-04T02:42:53;99081.44;;;16.97;100.00
19526;BME280;9907;42.676;26.348;2023-06-04T02:45:19;99083.56;;;17.10;100.00
19526;BME280;9907;42.676;26.348;2023-06-04T02:47:48;99080.75;;;17.03;100.00
19526;BME280;9907;42.676;26.348;2023-06-04T02:50:14;99078.22;;;17.01;100.00
19526;BME280;9907;42.676;26.348;2023-06-04T02:52:40;99083.75;;;17.08;100.00
19526;BME280;9907;42.676;26.348;2023-06-04T02:55:07;99087.78;;;17.12;100.00
19526;BME280;9907;42.676;26.348;2023-06-04T02:57:34;99091.78;;;17.16;100.00
19526;BME280;9907;42.676;26.348;2023-06-04T03:00:00;99092.81;;;17.15;100.00
19526;BME280;9907;42.676;26.348;2023-06-04T03:02:26;99097.56;;;17.13;100.00
19526;BME280;9907;42.676;26.348;2023-06-04T03:04:53;99094.91;;;17.05;100.00
19526;BME280;9907;42.676;26.348;2023-06-04T03:07:20;99094.91;;;17.05;100.00
19526;BME280;9907;42.676;26.348;2023-06-04T03:09:48;99091.84;;;17.08;100.00
19526;BME280;9907;42.676;26.348;2023-06-04T03:12:14;99093.16;;;17.12;100.00
19526;BME280;9907;42.676;26.348;2023-06-04T03:14:39;99093.84;;;17.14;100.00
19526;BME280;9907;42.676;26.348;2023-06-04T03:17:05;99096.84;;;17.19;100.00
19526;BME280;9907;42.676;26.348;2023-06-04T03:19:40;99095.66;;;17.22;100.00
19526;BME280;9907;42.676;26.348;2023-06-04T03:22:07;99096.84;;;17.19;100.00
19526;BME280;9907;42.676;26.348;2023-06-04T03:24:38;99103.75;;;17.22;100.00
19526;BME280;9907;42.676;26.348;2023-06-04T03:27:05;99104.41;;;17.24;100.00
19526;BME280;9907;42.676;26.348;2023-06-04T03:29:33;99112.97;;;17.27;100.00
19526;BME280;9907;42.676;26.348;2023-06-04T03:31:59;99119.41;;;17.26;100.00
19526;BME280;9907;42.676;26.348;2023-06-04T03:34:25;99116.69;;;17.26;100.00
19526;BME280;9907;42.676;26.348;2023-06-04T03:36:54;99126.00;;;17.24;100.00
19526;BME280;9907;42.676;26.348;2023-06-04T03:39:20;99135.09;;;17.23;100.00
19526;BME280;9907;42.676;26.348;2023-06-04T03:41:46;99135.25;;;17.29;100.00
19526;BME280;9907;42.676;26.348;2023-06-04T03:44:16;99132.41;;;17.23;100.00
19526;BME280;9907;42.676;26.348;2023-06-04T03:46:42;99129.34;;;17.26;100.00
19526;BME280;9907;42.676;26.348;2023-06-04T03:49:12;99128.81;;;17.30;100.00
19526;BME280;9907;42.676;26.348;2023-06-04T03:51:39;99140.31;;;17.32;100.00
19526;BME280;9907;42.676;26.348;2023-06-04T03:54:04;99147.44;;;17.25;100.00
19526;BME280;9907;42.676;26.348;2023-06-04T03:56:30;99140.03;;;17.19;100.00
19526;BME280;9907;42.676;26.348;2023-06-04T03:58:56;99147.94;;;17.21;100.00
19526;BME280;9907;42.676;26.348;2023-06-04T04:01:22;99146.94;;;17.22;100.00
19526;BME280;9907;42.676;26.348;2023-06-04T04:03:49;99150.47;;;17.22;100.00
19526;BME280;9907;42.676;26.348;2023-06-04T04:06:16;99156.00;;;17.29;100.00
19526;BME280;9907;42.676;26.348;2023-06-04T04:08:42;99153.13;;;17.30;100.00
19526;BME280;9907;42.676;26.348;2023-06-04T04:11:13;99160.69;;;17.35;100.00
19526;BME280;9907;42.676;26.348;2023-06-04T04:13:39;99161.19;;;17.38;100.00
19526;BME280;9907;42.676;26.348;2023-06-04T04:16:04;99159.19;;;17.32;100.00
19526;BME280;9907;42.676;26.348;2023-06-04T04:18:33;99164.03;;;17.37;100.00
19526;BME280;9907;42.676;26.348;2023-06-04T04:21:00;99171.81;;;17.40;100.00
19526;BME280;9907;42.676;26.348;2023-06-04T04:23:25;99164.56;;;17.40;100.00
19526;BME280;9907;42.676;26.348;2023-06-04T04:25:52;99170.59;;;17.42;100.00
19526;BME280;9907;42.676;26.348;2023-06-04T04:28:18;99171.44;;;17.43;100.00
19526;BME280;9907;42.676;26.348;2023-06-04T04:30:44;99171.94;;;17.46;100.00
19526;BME280;9907;42.676;26.348;2023-06-04T04:33:10;99172.22;;;17.51;100.00
19526;BME280;9907;42.676;26.348;2023-06-04T04:35:36;99173.75;;;17.54;100.00
19526;BME280;9907;42.676;26.348;2023-06-04T04:38:02;99179.81;;;17.56;100.00
19526;BME280;9907;42.676;26.348;2023-06-04T04:40:29;99179.81;;;17.56;100.00
19526;BME280;9907;42.676;26.348;2023-06-04T04:42:55;99177.28;;;17.55;100.00
19526;BME280;9907;42.676;26.348;2023-06-04T04:45:20;99188.63;;;17.58;100.00
19526;BME280;9907;42.676;26.348;2023-06-04T04:47:46;99185.19;;;17.56;100.00
19526;BME280;9907;42.676;26.348;2023-06-04T04:50:12;99193.81;;;17.51;100.00
19526;BME280;9907;42.676;26.348;2023-06-04T04:52:38;99194.88;;;17.50;100.00
19526;BME280;9907;42.676;26.348;2023-06-04T04:55:04;99198.06;;;17.54;100.00
19526;BME280;9907;42.676;26.348;2023-06-04T04:57:29;99196.72;;;17.50;100.00
19526;BME280;9907;42.676;26.348;2023-06-04T04:59:55;99199.22;;;17.51;100.00
19526;BME280;9907;42.676;26.348;2023-06-04T05:02:20;99205.97;;;17.56;100.00
19526;BME280;9907;42.676;26.348;2023-06-04T05:04:46;99210.41;;;17.48;100.00
19526;BME280;9907;42.676;26.348;2023-06-04T05:07:12;99211.72;;;17.52;100.00
19526;BME280;9907;42.676;26.348;2023-06-04T05:09:37;99210.41;;;17.48;100.00
19526;BME280;9907;42.676;26.348;2023-06-04T05:12:03;99213.78;;;17.50;100.00
19526;BME280;9907;42.676;26.348;2023-06-04T05:14:28;99221.03;;;17.50;100.00
19526;BME280;9907;42.676;26.348;2023-06-04T05:16:54;99218.84;;;17.45;100.00
19526;BME280;9907;42.676;26.348;2023-06-04T05:19:23;99220.53;;;17.46;100.00
19526;BME280;9907;42.676;26.348;2023-06-04T05:21:49;99226.47;;;17.42;100.00
19526;BME280;9907;42.676;26.348;2023-06-04T05:24:14;99238.47;;;17.39;100.00
19526;BME280;9907;42.676;26.348;2023-06-04T05:26:41;99228.03;;;17.36;100.00
19526;BME280;9907;42.676;26.348;2023-06-04T05:29:07;99228.19;;;17.35;100.00
19526;BME280;9907;42.676;26.348;2023-06-04T05:31:33;99226.09;;;17.45;100.00
19526;BME280;9907;42.676;26.348;2023-06-04T05:34:00;99236.41;;;17.41;100.00
19526;BME280;9907;42.676;26.348;2023-06-04T05:36:27;99222.28;;;17.39;100.00
19526;BME280;9907;42.676;26.348;2023-06-04T05:38:53;99238.28;;;17.41;100.00
19526;BME280;9907;42.676;26.348;2023-06-04T05:41:27;99238.13;;;17.42;100.00
19526;BME280;9907;42.676;26.348;2023-06-04T05:43:53;99226.97;;;17.45;100.00
19526;BME280;9907;42.676;26.348;2023-06-04T05:46:19;99237.94;;;17.44;100.00
19526;BME280;9907;42.676;26.348;2023-06-04T05:48:44;99236.75;;;17.46;100.00
19526;BME280;9907;42.676;26.348;2023-06-04T05:51:12;99238.44;;;17.47;100.00
19526;BME280;9907;42.676;26.348;2023-06-04T05:53:38;99247.19;;;17.49;100.00
19526;BME280;9907;42.676;26.348;2023-06-04T05:56:04;99236.22;;;17.51;100.00
19526;BME280;9907;42.676;26.348;2023-06-04T05:58:33;99245.50;;;17.48;100.00
19526;BME280;9907;42.676;26.348;2023-06-04T06:00:59;99246.84;;;17.52;100.00
19526;BME280;9907;42.676;26.348;2023-06-04T06:03:25;99239.56;;;17.53;100.00
19526;BME280;9907;42.676;26.348;2023-06-04T06:05:52;99250.53;;;17.51;100.00
19526;BME280;9907;42.676;26.348;2023-06-04T06:08:19;99246.84;;;17.52;100.00
19526;BME280;9907;42.676;26.348;2023-06-04T06:10:45;99247.47;;;17.63;100.00
19526;BME280;9907;42.676;26.348;2023-06-04T06:13:11;99251.50;;;17.67;100.00
19526;BME280;9907;42.676;26.348;2023-06-04T06:15:36;99250.69;;;17.66;100.00
19526;BME280;9907;42.676;26.348;2023-06-04T06:18:02;99260.31;;;17.69;100.00
19526;BME280;9907;42.676;26.348;2023-06-04T06:20:27;99249.13;;;17.72;100.00
19526;BME280;9907;42.676;26.348;2023-06-04T06:22:54;99253.31;;;17.74;100.00
19526;BME280;9907;42.676;26.348;2023-06-04T06:25:19;99252.28;;;17.83;100.00
19526;BME280;9907;42.676;26.348;2023-06-04T06:27:45;99258.16;;;17.87;100.00
19526;BME280;9907;42.676;26.348;2023-06-04T06:30:11;99259.84;;;17.88;100.00
19526;BME280;9907;42.676;26.348;2023-06-04T06:32:37;99253.41;;;17.89;100.00
19526;BME280;9907;42.676;26.348;2023-06-04T06:35:03;99257.47;;;17.85;100.00
19526;BME280;9907;42.676;26.348;2023-06-04T06:37:29;99260.69;;;17.88;100.00
19526;BME280;9907;42.676;26.348;2023-06-04T06:39:54;99262.69;;;17.94;100.00
19526;BME280;9907;42.676;26.348;2023-06-04T06:42:20;99269.56;;;17.97;100.00
19526;BME280;9907;42.676;26.348;2023-06-04T06:44:45;99274.50;;;17.93;100.00
19526;BME280;9907;42.676;26.348;2023-06-04T06:47:11;99269.28;;;17.92;100.00
19526;BME280;9907;42.676;26.348;2023-06-04T06:49:40;99268.59;;;17.90;100.00
19526;BME280;9907;42.676;26.348;2023-06-04T06:52:06;99274.84;;;17.90;100.00
19526;BME280;9907;42.676;26.348;2023-06-04T06:54:31;99274.97;;;17.97;100.00
19526;BME280;9907;42.676;26.348;2023-06-04T06:56:57;99278.97;;;18.09;100.00
19526;BME280;9907;42.676;26.348;2023-06-04T06:59:23;99288.19;;;18.15;100.00
19526;BME280;9907;42.676;26.348;2023-06-04T07:01:49;99280.66;;;18.10;100.00
19526;BME280;9907;42.676;26.348;2023-06-04T07:04:15;99279.44;;;18.13;100.00
19526;BME280;9907;42.676;26.348;2023-06-04T07:06:41;99278.19;;;18.23;100.00
19526;BME280;9907;42.676;26.348;2023-06-04T07:09:06;99278.78;;;18.33;100.00
19526;BME280;9907;42.676;26.348;2023-06-04T07:11:32;99285.34;;;18.39;100.00
19526;BME280;9907;42.676;26.348;2023-06-04T07:13:58;99280.88;;;18.46;100.00
19526;BME280;9907;42.676;26.348;2023-06-04T07:16:23;99286.53;;;18.59;100.00
19526;BME280;9907;42.676;26.348;2023-06-04T07:18:49;99284.91;;;18.73;100.00
19526;BME280;9907;42.676;26.348;2023-06-04T07:21:15;99283.78;;;18.82;100.00
19526;BME280;9907;42.676;26.348;2023-06-04T07:23:41;99290.16;;;18.89;100.00
19526;BME280;9907;42.676;26.348;2023-06-04T07:26:07;99285.97;;;19.01;100.00
19526;BME280;9907;42.676;26.348;2023-06-04T07:28:33;99294.72;;;19.03;97.65
19526;BME280;9907;42.676;26.348;2023-06-04T07:30:58;99296.72;;;19.09;99.42
19526;BME280;9907;42.676;26.348;2023-06-04T07:33:24;99293.47;;;19.28;100.00
19526;BME280;9907;42.676;26.348;2023-06-04T07:35:50;99287.34;;;19.85;100.00
19526;BME280;9907;42.676;26.348;2023-06-04T07:38:16;99285.88;;;20.61;100.00
19526;BME280;9907;42.676;26.348;2023-06-04T07:40:42;99288.19;;;20.64;100.00
19526;BME280;9907;42.676;26.348;2023-06-04T07:43:07;99302.03;;;20.48;100.00
19526;BME280;9907;42.676;26.348;2023-06-04T07:45:33;99299.97;;;20.50;97.15
19526;BME280;9907;42.676;26.348;2023-06-04T07:47:58;99288.81;;;20.66;94.50
19526;BME280;9907;42.676;26.348;2023-06-04T07:50:24;99295.50;;;21.12;92.53
19526;BME280;9907;42.676;26.348;2023-06-04T07:52:50;99298.53;;;21.30;86.67
19526;BME280;9907;42.676;26.348;2023-06-04T07:55:16;99295.25;;;21.42;86.54
19526;BME280;9907;42.676;26.348;2023-06-04T07:57:42;99302.47;;;21.62;83.07
19526;BME280;9907;42.676;26.348;2023-06-04T08:00:11;99300.25;;;21.72;81.69
19526;BME280;9907;42.676;26.348;2023-06-04T08:02:37;99298.91;;;22.03;81.28
19526;BME280;9907;42.676;26.348;2023-06-04T08:05:02;99310.97;;;21.87;78.91
19526;BME280;9907;42.676;26.348;2023-06-04T08:07:31;99308.31;;;21.59;80.85
19526;BME280;9907;42.676;26.348;2023-06-04T08:09:57;99305.75;;;21.51;78.92
19526;BME280;9907;42.676;26.348;2023-06-04T08:12:22;99299.44;;;21.44;78.01
19526;BME280;9907;42.676;26.348;2023-06-04T08:14:48;99304.91;;;21.51;80.58
19526;BME280;9907;42.676;26.348;2023-06-04T08:17:18;99304.72;;;21.52;80.11
19526;BME280;9907;42.676;26.348;2023-06-04T08:19:47;99308.53;;;21.58;79.69
19526;BME280;9907;42.676;26.348;2023-06-04T08:22:12;99315.97;;;21.43;82.25
19526;BME280;9907;42.676;26.348;2023-06-04T08:24:39;99311.81;;;21.47;79.95
19526;BME280;9907;42.676;26.348;2023-06-04T08:27:04;99306.69;;;22.12;77.67
19526;BME280;9907;42.676;26.348;2023-06-04T08:29:32;99317.59;;;22.25;74.26
19526;BME280;9907;42.676;26.348;2023-06-04T08:31:58;99306.09;;;22.37;70.62
19526;BME280;9907;42.676;26.348;2023-06-04T08:34:23;99314.50;;;22.35;71.07
19526;BME280;9907;42.676;26.348;2023-06-04T08:36:48;99313.56;;;22.02;70.09
19526;BME280;9907;42.676;26.348;2023-06-04T08:39:14;99317.94;;;21.96;70.93
19526;BME280;9907;42.676;26.348;2023-06-04T08:41:45;99319.72;;;21.82;70.18
19526;BME280;9907;42.676;26.348;2023-06-04T08:44:11;99319.75;;;21.89;70.06
19526;BME280;9907;42.676;26.348;2023-06-04T08:46:40;99316.56;;;21.72;69.42
19526;BME280;9907;42.676;26.348;2023-06-04T08:49:06;99326.00;;;21.76;69.02
19526;BME280;9907;42.676;26.348;2023-06-04T08:51:33;99324.41;;;21.95;68.95
19526;BME280;9907;42.676;26.348;2023-06-04T08:53:59;99318.16;;;21.95;67.60
19526;BME280;9907;42.676;26.348;2023-06-04T08:56:25;99329.34;;;21.85;67.50
19526;BME280;9907;42.676;26.348;2023-06-04T08:58:56;99330.50;;;21.63;69.57
19526;BME280;9907;42.676;26.348;2023-06-04T09:01:25;99333.50;;;21.74;69.30
19526;BME280;9907;42.676;26.348;2023-06-04T09:03:50;99329.16;;;21.87;68.57
19526;BME280;9907;42.676;26.348;2023-06-04T09:06:16;99328.91;;;22.29;69.18
19526;BME280;9907;42.676;26.348;2023-06-04T09:08:43;99327.84;;;22.17;68.04
19526;BME280;9907;42.676;26.348;2023-06-04T09:11:12;99320.28;;;22.06;70.29
19526;BME280;9907;42.676;26.348;2023-06-04T09:13:39;99314.59;;;22.01;69.62
19526;BME280;9907;42.676;26.348;2023-06-04T09:16:07;99321.41;;;21.83;72.56
19526;BME280;9907;42.676;26.348;2023-06-04T09:18:32;99321.19;;;21.85;71.38
19526;BME280;9907;42.676;26.348;2023-06-04T09:21:05;99328.38;;;21.93;72.30
19526;BME280;9907;42.676;26.348;2023-06-04T09:23:36;99321.25;;;21.92;71.50
19526;BME280;9907;42.676;26.348;2023-06-04T09:26:08;99328.44;;;22.06;75.11
19526;BME280;9907;42.676;26.348;2023-06-04T09:28:35;99329.03;;;22.01;75.09
19526;BME280;9907;42.676;26.348;2023-06-04T09:31:03;99333.22;;;21.97;79.15
19526;BME280;9907;42.676;26.348;2023-06-04T09:33:29;99339.09;;;22.07;79.34
19526;BME280;9907;42.676;26.348;2023-06-04T09:35:56;99339.28;;;21.99;78.15
19526;BME280;9907;42.676;26.348;2023-06-04T09:38:22;99341.13;;;21.92;75.34
19526;BME280;9907;42.676;26.348;2023-06-04T09:40:48;99341.91;;;21.86;74.44
19526;BME280;9907;42.676;26.348;2023-06-04T09:43:23;99345.78;;;21.98;70.51
19526;BME280;9907;42.676;26.348;2023-06-04T09:45:49;99330.50;;;22.04;69.55
19526;BME280;9907;42.676;26.348;2023-06-04T09:48:20;99332.19;;;22.05;68.27
19526;BME280;9907;42.676;26.348;2023-06-04T09:50:46;99341.25;;;21.84;65.82
19526;BME280;9907;42.676;26.348;2023-06-04T09:53:17;99343.78;;;21.85;66.20
19526;BME280;9907;42.676;26.348;2023-06-04T09:55:43;99348.94;;;22.08;67.33
19526;BME280;9907;42.676;26.348;2023-06-04T09:58:10;99337.72;;;22.24;66.54
19526;BME280;9907;42.676;26.348;2023-06-04T10:00:37;99330.84;;;22.42;65.70
19526;BME280;9907;42.676;26.348;2023-06-04T10:03:03;99343.41;;;22.56;64.01
19526;BME280;9907;42.676;26.348;2023-06-04T10:05:33;99329.16;;;22.41;63.25
19526;BME280;9907;42.676;26.348;2023-06-04T10:08:03;99323.72;;;22.47;65.19
19526;BME280;9907;42.676;26.348;2023-06-04T10:10:36;99327.56;;;22.72;63.78
19526;BME280;9907;42.676;26.348;2023-06-04T10:13:07;99334.41;;;22.62;63.40
19526;BME280;9907;42.676;26.348;2023-06-04T10:15:35;99333.19;;;22.64;65.65
19526;BME280;9907;42.676;26.348;2023-06-04T10:18:01;99337.34;;;22.54;65.33
19526;BME280;9907;42.676;26.348;2023-06-04T10:20:28;99337.34;;;22.54;66.44
19526;BME280;9907;42.676;26.348;2023-06-04T10:22:54;99329.19;;;22.67;64.84
19526;BME280;9907;42.676;26.348;2023-06-04T10:25:20;99328.00;;;22.76;64.64
19526;BME280;9907;42.676;26.348;2023-06-04T10:27:46;99329.69;;;22.84;64.06
19526;BME280;9907;42.676;26.348;2023-06-04T10:30:12;99333.63;;;22.74;64.27
19526;BME280;9907;42.676;26.348;2023-06-04T10:32:38;99326.31;;;22.68;65.52
19526;BME280;9907;42.676;26.348;2023-06-04T10:35:06;99329.19;;;22.67;65.54
19526;BME280;9907;42.676;26.348;2023-06-04T10:37:36;99324.63;;;22.74;66.32
19526;BME280;9907;42.676;26.348;2023-06-04T10:40:02;99327.75;;;22.84;65.79
19526;BME280;9907;42.676;26.348;2023-06-04T10:42:41;99318.16;;;23.01;64.53
19526;BME280;9907;42.676;26.348;2023-06-04T10:45:07;99318.34;;;23.13;63.21
19526;BME280;9907;42.676;26.348;2023-06-04T10:47:33;99316.66;;;23.12;62.33
19526;BME280;9907;42.676;26.348;2023-06-04T10:50:14;99316.25;;;23.28;64.53
19526;BME280;9907;42.676;26.348;2023-06-04T10:52:54;99305.72;;;23.45;100.00
19526;BME280;9907;42.676;26.348;2023-06-04T10:55:20;99305.72;;;23.45;63.91
19526;BME280;9907;42.676;26.348;2023-06-04T10:57:55;99297.31;;;23.40;60.68
19526;BME280;9907;42.676;26.348;2023-06-04T11:00:22;99303.66;;;23.27;62.00
19526;BME280;9907;42.676;26.348;2023-06-04T11:02:54;101213.38;;;-94.46;60.39
19526;BME280;9907;42.676;26.348;2023-06-04T11:05:34;101039.88;;;23.22;60.22
19526;BME280;9907;42.676;26.348;2023-06-04T11:08:04;99298.81;;;33.69;63.73
19526;BME280;9907;42.676;26.348;2023-06-04T11:10:42;99295.88;;;23.37;63.73
19526;BME280;9907;42.676;26.348;2023-06-04T11:13:08;99295.66;;;34.72;61.30
19526;BME280;9907;42.676;26.348;2023-06-04T11:15:41;57875.59;;;23.24;59.86
19526;BME280;9907;42.676;26.348;2023-06-04T11:18:07;99296.72;;;-140.96;59.86
19526;BME280;9907;42.676;26.348;2023-06-04T11:20:40;99299.91;;;22.95;61.35
19526;BME280;9907;42.676;26.348;2023-06-04T11:23:07;99299.06;;;23.01;72.12
19526;BME280;9907;42.676;26.348;2023-06-04T11:25:33;99296.56;;;22.87;62.20
19526;BME280;9907;42.676;26.348;2023-06-04T11:28:00;99303.25;;;22.77;61.59
19526;BME280;9907;42.676;26.348;2023-06-04T11:30:27;99295.09;;;22.77;64.14
19526;BME280;9907;42.676;26.348;2023-06-04T11:33:03;99292.78;;;22.94;62.95
19526;BME280;9907;42.676;26.348;2023-06-04T11:35:29;99295.94;;;22.78;63.11
19526;BME280;9907;42.676;26.348;2023-06-04T11:37:56;99299.44;;;22.59;63.09
19526;BME280;9907;42.676;26.348;2023-06-04T11:40:22;99300.97;;;22.68;98.10
19526;BME280;9907;42.676;26.348;2023-06-04T11:42:49;99285.25;;;22.70;64.68
19526;BME280;9907;42.676;26.348;2023-06-04T11:45:17;99294.00;;;22.59;64.95
19526;BME280;9907;42.676;26.348;2023-06-04T11:47:53;53833.59;;;-93.17;64.95
19526;BME280;9907;42.676;26.348;2023-06-04T11:50:23;99283.34;;;22.77;65.38
19526;BME280;9907;42.676;26.348;2023-06-04T11:52:53;99276.03;;;22.91;64.22
19526;BME280;9907;42.676;26.348;2023-06-04T11:55:19;99278.97;;;190.19;63.75
19526;BME280;9907;42.676;26.348;2023-06-04T11:57:48;99280.00;;;23.01;62.65
19526;BME280;9907;42.676;26.348;2023-06-04T12:00:14;79335.19;;;-60.87;62.65
19526;BME280;9907;42.676;26.348;2023-06-04T12:02:52;99276.44;;;-140.96;62.25
19526;BME280;9907;42.676;26.348;2023-06-04T12:05:18;-20337.03;;;21.87;62.61
19526;BME280;9907;42.676;26.348;2023-06-04T12:07:45;99274.31;;;23.16;60.61
19526;BME280;9907;42.676;26.348;2023-06-04T12:10:11;99272.63;;;-94.46;61.89
19526;BME280;9907;42.676;26.348;2023-06-04T12:12:37;99273.88;;;23.25;60.44
19526;BME280;9907;42.676;26.348;2023-06-04T12:15:03;99275.38;;;23.15;57.58
19526;BME280;9907;42.676;26.348;2023-06-04T12:17:31;99275.38;;;23.15;57.58
19526;BME280;9907;42.676;26.348;2023-06-04T12:19:56;99276.19;;;23.22;59.16
19526;BME280;9907;42.676;26.348;2023-06-04T12:22:24;99280.97;;;23.40;59.88
19526;BME280;9907;42.676;26.348;2023-06-04T12:24:51;99457.38;;;23.40;59.88
19526;BME280;9907;42.676;26.348;2023-06-04T12:27:25;99280.97;;;24.46;59.88
19526;BME280;9907;42.676;26.348;2023-06-04T12:29:58;99271.00;;;23.05;59.91
19526;BME280;9907;42.676;26.348;2023-06-04T12:32:24;99285.44;;;22.88;60.13
19526;BME280;9907;42.676;26.348;2023-06-04T12:37:15;56734.69;;;22.71;59.31
19526;BME280;9907;42.676;26.348;2023-06-04T12:39:40;74575.84;;;190.19;59.31
19526;BME280;9907;42.676;26.348;2023-06-04T12:42:07;99275.59;;;22.80;100.00
19526;BME280;9907;42.676;26.348;2023-06-04T12:44:36;99284.00;;;22.79;58.89
19526;BME280;9907;42.676;26.348;2023-06-04T12:47:02;99278.09;;;22.69;60.10
19526;BME280;9907;42.676;26.348;2023-06-04T12:49:28;97888.34;;;22.78;100.00
19526;BME280;9907;42.676;26.348;2023-06-04T12:51:53;99291.53;;;22.84;59.29
19526;BME280;9907;42.676;26.348;2023-06-04T12:54:19;99291.53;;;22.84;59.29
19526;BME280;9907;42.676;26.348;2023-06-04T12:56:45;99296.16;;;22.83;59.51